sensor_id;sensor_type;location;lat;lon;timestamp;P1;durP1;ratioP1;P2;durP2;ratioP2
25331;SDS011;13284;52.748;13.452;2022-09-01T00:00:43;1.80;;;1.70;;
25331;SDS011;13284;52.748;13.452;2022-09-01T00:03:16;1.70;;;1.60;;
25331;SDS011;13284;52.748;13.452;2022-09-01T00:05:43;1.83;;;1.67;;
25331;SDS011;13284;52.748;13.452;2022-09-01T00:08:10;2.20;;;1.60;;
25331;SDS011;13284;52.748;13.452;2022-09-01T00:10:36;2.60;;;2.40;;
25331;SDS011;13284;52.748;13.452;2022-09-01T00:13:02;2.30;;;2.00;;
25331;SDS011;13284;52.748;13.452;2022-09-01T00:15:30;2.93;;;2.30;;
25331;SDS011;13284;52.748;13.452;2022-09-01T00:17:59;3.37;;;2.10;;
25331;SDS011;13284;52.748;13.452;2022-09-01T00:20:25;1.60;;;1.50;;
25331;SDS011;13284;52.748;13.452;2022-09-01T00:22:51;1.60;;;1.50;;
25331;SDS011;13284;52.748;13.452;2022-09-01T00:25:17;1.80;;;1.70;;
25331;SDS011;13284;52.748;13.452;2022-09-01T00:27:43;1.67;;;1.33;;
25331;SDS011;13284;52.748;13.452;2022-09-01T00:30:10;3.27;;;1.60;;
25331;SDS011;13284;52.748;13.452;2022-09-01T00:32:36;1.70;;;1.60;;
25331;SDS011;13284;52.748;13.452;2022-09-01T00:35:02;1.50;;;1.40;;
25331;SDS011;13284;52.748;13.452;2022-09-01T00:37:28;1.60;;;1.50;;
25331;SDS011;13284;52.748;13.452;2022-09-01T00:39:54;1.70;;;1.60;;
25331;SDS011;13284;52.748;13.452;2022-09-01T00:42:20;2.37;;;1.20;;
25331;SDS011;13284;52.748;13.452;2022-09-01T00:44:45;1.50;;;1.40;;
25331;SDS011;13284;52.748;13.452;2022-09-01T00:47:11;2.60;;;1.30;;
25331;SDS011;13284;52.748;13.452;2022-09-01T00:49:38;1.60;;;1.50;;
25331;SDS011;13284;52.748;13.452;2022-09-01T00:52:09;1.20;;;1.10;;
25331;SDS011;13284;52.748;13.452;2022-09-01T00:54:47;4.50;;;1.50;;
25331;SDS011;13284;52.748;13.452;2022-09-01T00:57:17;1.37;;;1.27;;
25331;SDS011;13284;52.748;13.452;2022-09-01T00:59:54;2.67;;;1.63;;
25331;SDS011;13284;52.748;13.452;2022-09-01T01:02:23;2.50;;;1.60;;
25331;SDS011;13284;52.748;13.452;2022-09-01T01:04:49;1.57;;;1.47;;
25331;SDS011;13284;52.748;13.452;2022-09-01T01:07:16;1.83;;;1.73;;
25331;SDS011;13284;52.748;13.452;2022-09-01T01:09:46;1.67;;;1.57;;
25331;SDS011;13284;52.748;13.452;2022-09-01T01:12:12;1.40;;;1.30;;
25331;SDS011;13284;52.748;13.452;2022-09-01T01:14:43;1.57;;;1.47;;
25331;SDS011;13284;52.748;13.452;2022-09-01T01:17:10;1.40;;;1.30;;
25331;SDS011;13284;52.748;13.452;2022-09-01T01:20:11;1.60;;;1.40;;
25331;SDS011;13284;52.748;13.452;2022-09-01T01:25:47;1.70;;;1.60;;
25331;SDS011;13284;52.748;13.452;2022-09-01T01:28:26;1.70;;;1.60;;
25331;SDS011;13284;52.748;13.452;2022-09-01T01:33:39;1.57;;;1.47;;
25331;SDS011;13284;52.748;13.452;2022-09-01T01:36:14;1.57;;;1.47;;
25331;SDS011;13284;52.748;13.452;2022-09-01T01:38:51;2.17;;;1.63;;
25331;SDS011;13284;52.748;13.452;2022-09-01T01:41:19;1.47;;;1.37;;
25331;SDS011;13284;52.748;13.452;2022-09-01T01:43:46;1.67;;;1.57;;
25331;SDS011;13284;52.748;13.452;2022-09-01T01:46:12;1.77;;;1.67;;
25331;SDS011;13284;52.748;13.452;2022-09-01T01:48:39;1.60;;;1.50;;
25331;SDS011;13284;52.748;13.452;2022-09-01T01:53:57;1.63;;;1.53;;
25331;SDS011;13284;52.748;13.452;2022-09-01T01:56:25;1.53;;;1.43;;
25331;SDS011;13284;52.748;13.452;2022-09-01T01:58:52;1.77;;;1.43;;
25331;SDS011;13284;52.748;13.452;2022-09-01T02:01:23;1.80;;;1.40;;
25331;SDS011;13284;52.748;13.452;2022-09-01T02:03:52;2.30;;;1.60;;
25331;SDS011;13284;52.748;13.452;2022-09-01T02:06:23;1.37;;;1.27;;
25331;SDS011;13284;52.748;13.452;2022-09-01T02:08:51;1.83;;;1.63;;
25331;SDS011;13284;52.748;13.452;2022-09-01T02:11:20;1.57;;;1.47;;
25331;SDS011;13284;52.748;13.452;2022-09-01T02:13:46;1.80;;;1.70;;
25331;SDS011;13284;52.748;13.452;2022-09-01T02:16:13;1.87;;;1.60;;
25331;SDS011;13284;52.748;13.452;2022-09-01T02:18:42;1.97;;;1.60;;
25331;SDS011;13284;52.748;13.452;2022-09-01T02:21:12;1.70;;;1.60;;
25331;SDS011;13284;52.748;13.452;2022-09-01T02:23:43;1.77;;;1.67;;
25331;SDS011;13284;52.748;13.452;2022-09-01T02:26:11;1.87;;;1.73;;
25331;SDS011;13284;52.748;13.452;2022-09-01T02:28:37;3.07;;;2.30;;
25331;SDS011;13284;52.748;13.452;2022-09-01T02:31:06;1.77;;;1.67;;
25331;SDS011;13284;52.748;13.452;2022-09-01T02:33:33;1.97;;;1.77;;
25331;SDS011;13284;52.748;13.452;2022-09-01T02:36:01;1.10;;;1.10;;
25331;SDS011;13284;52.748;13.452;2022-09-01T02:38:30;2.17;;;1.70;;
25331;SDS011;13284;52.748;13.452;2022-09-01T02:40:58;1.57;;;1.43;;
25331;SDS011;13284;52.748;13.452;2022-09-01T02:43:26;1.50;;;1.40;;
25331;SDS011;13284;52.748;13.452;2022-09-01T02:45:54;1.93;;;1.47;;
25331;SDS011;13284;52.748;13.452;2022-09-01T02:48:24;1.73;;;1.60;;
25331;SDS011;13284;52.748;13.452;2022-09-01T02:50:56;1.83;;;1.73;;
25331;SDS011;13284;52.748;13.452;2022-09-01T02:53:23;4.13;;;1.70;;
25331;SDS011;13284;52.748;13.452;2022-09-01T02:55:49;1.77;;;1.60;;
25331;SDS011;13284;52.748;13.452;2022-09-01T02:58:15;1.77;;;1.60;;
25331;SDS011;13284;52.748;13.452;2022-09-01T03:00:44;1.60;;;1.50;;
25331;SDS011;13284;52.748;13.452;2022-09-01T03:03:10;1.70;;;1.60;;
25331;SDS011;13284;52.748;13.452;2022-09-01T03:05:37;3.20;;;1.80;;
25331;SDS011;13284;52.748;13.452;2022-09-01T03:08:07;2.60;;;2.40;;
25331;SDS011;13284;52.748;13.452;2022-09-01T03:10:37;1.80;;;1.70;;
25331;SDS011;13284;52.748;13.452;2022-09-01T03:13:06;2.87;;;2.67;;
25331;SDS011;13284;52.748;13.452;2022-09-01T03:15:35;4.83;;;3.43;;
25331;SDS011;13284;52.748;13.452;2022-09-01T03:18:03;3.50;;;2.60;;
25331;SDS011;13284;52.748;13.452;2022-09-01T03:20:30;2.67;;;2.40;;
25331;SDS011;13284;52.748;13.452;2022-09-01T03:22:58;2.60;;;2.40;;
25331;SDS011;13284;52.748;13.452;2022-09-01T03:25:29;5.60;;;3.63;;
25331;SDS011;13284;52.748;13.452;2022-09-01T03:27:56;4.13;;;3.13;;
25331;SDS011;13284;52.748;13.452;2022-09-01T03:30:25;2.70;;;2.50;;
25331;SDS011;13284;52.748;13.452;2022-09-01T03:32:53;2.73;;;2.37;;
25331;SDS011;13284;52.748;13.452;2022-09-01T03:35:20;2.50;;;2.30;;
25331;SDS011;13284;52.748;13.452;2022-09-01T03:37:46;3.27;;;1.60;;
25331;SDS011;13284;52.748;13.452;2022-09-01T03:40:11;1.67;;;1.57;;
25331;SDS011;13284;52.748;13.452;2022-09-01T03:42:38;2.07;;;1.77;;
25331;SDS011;13284;52.748;13.452;2022-09-01T03:45:04;2.05;;;1.90;;
25331;SDS011;13284;52.748;13.452;2022-09-01T03:47:37;1.90;;;1.80;;
25331;SDS011;13284;52.748;13.452;2022-09-01T03:50:09;1.70;;;1.60;;
25331;SDS011;13284;52.748;13.452;2022-09-01T03:52:44;1.60;;;1.50;;
25331;SDS011;13284;52.748;13.452;2022-09-01T03:55:20;2.27;;;2.07;;
25331;SDS011;13284;52.748;13.452;2022-09-01T03:57:54;2.40;;;2.00;;
25331;SDS011;13284;52.748;13.452;2022-09-01T04:00:25;2.13;;;1.53;;
25331;SDS011;13284;52.748;13.452;2022-09-01T04:02:54;2.10;;;1.90;;
25331;SDS011;13284;52.748;13.452;2022-09-01T04:05:23;2.40;;;2.20;;
25331;SDS011;13284;52.748;13.452;2022-09-01T04:07:53;2.17;;;1.97;;
25331;SDS011;13284;52.748;13.452;2022-09-01T04:10:20;1.70;;;1.60;;
25331;SDS011;13284;52.748;13.452;2022-09-01T04:12:46;2.50;;;2.30;;
25331;SDS011;13284;52.748;13.452;2022-09-01T04:15:13;2.17;;;1.67;;
25331;SDS011;13284;52.748;13.452;2022-09-01T04:17:40;1.80;;;1.70;;
25331;SDS011;13284;52.748;13.452;2022-09-01T04:20:28;2.00;;;1.90;;
25331;SDS011;13284;52.748;13.452;2022-09-01T04:22:54;2.13;;;1.93;;
25331;SDS011;13284;52.748;13.452;2022-09-01T04:25:21;2.13;;;1.80;;
25331;SDS011;13284;52.748;13.452;2022-09-01T04:27:49;1.90;;;1.80;;
25331;SDS011;13284;52.748;13.452;2022-09-01T04:30:16;2.67;;;1.80;;
25331;SDS011;13284;52.748;13.452;2022-09-01T04:32:42;1.80;;;1.70;;
25331;SDS011;13284;52.748;13.452;2022-09-01T04:35:10;2.43;;;2.00;;
25331;SDS011;13284;52.748;13.452;2022-09-01T04:37:40;4.50;;;2.00;;
25331;SDS011;13284;52.748;13.452;2022-09-01T04:40:07;2.07;;;1.87;;
25331;SDS011;13284;52.748;13.452;2022-09-01T04:42:34;2.20;;;2.00;;
25331;SDS011;13284;52.748;13.452;2022-09-01T04:44:59;2.07;;;1.70;;
25331;SDS011;13284;52.748;13.452;2022-09-01T04:47:25;2.20;;;2.00;;
25331;SDS011;13284;52.748;13.452;2022-09-01T04:49:54;2.70;;;2.50;;
25331;SDS011;13284;52.748;13.452;2022-09-01T04:52:23;2.70;;;2.10;;
25331;SDS011;13284;52.748;13.452;2022-09-01T04:54:48;2.17;;;2.00;;
25331;SDS011;13284;52.748;13.452;2022-09-01T04:57:14;3.63;;;1.93;;
25331;SDS011;13284;52.748;13.452;2022-09-01T04:59:41;2.87;;;1.97;;
25331;SDS011;13284;52.748;13.452;2022-09-01T05:02:07;1.97;;;1.87;;
25331;SDS011;13284;52.748;13.452;2022-09-01T05:04:33;2.47;;;2.20;;
25331;SDS011;13284;52.748;13.452;2022-09-01T05:06:59;3.07;;;2.00;;
25331;SDS011;13284;52.748;13.452;2022-09-01T05:09:27;3.00;;;2.60;;
25331;SDS011;13284;52.748;13.452;2022-09-01T05:11:53;3.47;;;2.60;;
25331;SDS011;13284;52.748;13.452;2022-09-01T05:14:21;3.90;;;3.00;;
25331;SDS011;13284;52.748;13.452;2022-09-01T05:16:47;3.03;;;2.80;;
25331;SDS011;13284;52.748;13.452;2022-09-01T05:19:14;2.50;;;2.30;;
25331;SDS011;13284;52.748;13.452;2022-09-01T05:21:41;2.63;;;2.43;;
25331;SDS011;13284;52.748;13.452;2022-09-01T05:24:10;2.70;;;2.50;;
25331;SDS011;13284;52.748;13.452;2022-09-01T05:26:39;3.33;;;2.93;;
25331;SDS011;13284;52.748;13.452;2022-09-01T05:29:06;4.70;;;3.67;;
25331;SDS011;13284;52.748;13.452;2022-09-01T05:31:34;2.97;;;2.67;;
25331;SDS011;13284;52.748;13.452;2022-09-01T05:34:02;3.67;;;2.63;;
25331;SDS011;13284;52.748;13.452;2022-09-01T05:36:29;3.27;;;2.63;;
25331;SDS011;13284;52.748;13.452;2022-09-01T05:38:58;3.20;;;2.70;;
25331;SDS011;13284;52.748;13.452;2022-09-01T05:41:25;3.30;;;2.40;;
25331;SDS011;13284;52.748;13.452;2022-09-01T05:43:50;3.20;;;2.93;;
25331;SDS011;13284;52.748;13.452;2022-09-01T05:46:22;3.23;;;2.93;;
25331;SDS011;13284;52.748;13.452;2022-09-01T05:48:50;2.60;;;2.20;;
25331;SDS011;13284;52.748;13.452;2022-09-01T05:51:18;3.60;;;2.50;;
25331;SDS011;13284;52.748;13.452;2022-09-01T05:53:46;3.43;;;2.90;;
25331;SDS011;13284;52.748;13.452;2022-09-01T05:56:16;3.70;;;2.50;;
25331;SDS011;13284;52.748;13.452;2022-09-01T05:58:43;2.87;;;2.30;;
25331;SDS011;13284;52.748;13.452;2022-09-01T06:01:14;2.93;;;2.67;;
25331;SDS011;13284;52.748;13.452;2022-09-01T06:03:50;3.33;;;2.80;;
25331;SDS011;13284;52.748;13.452;2022-09-01T06:06:19;2.63;;;2.43;;
25331;SDS011;13284;52.748;13.452;2022-09-01T06:08:47;4.43;;;2.30;;
25331;SDS011;13284;52.748;13.452;2022-09-01T06:11:13;3.40;;;2.67;;
25331;SDS011;13284;52.748;13.452;2022-09-01T06:13:40;3.07;;;2.70;;
25331;SDS011;13284;52.748;13.452;2022-09-01T06:16:06;2.77;;;2.57;;
25331;SDS011;13284;52.748;13.452;2022-09-01T06:18:33;2.60;;;2.40;;
25331;SDS011;13284;52.748;13.452;2022-09-01T06:21:01;4.13;;;3.07;;
25331;SDS011;13284;52.748;13.452;2022-09-01T06:23:28;2.20;;;2.00;;
25331;SDS011;13284;52.748;13.452;2022-09-01T06:25:54;4.93;;;3.53;;
25331;SDS011;13284;52.748;13.452;2022-09-01T06:28:19;7.00;;;2.70;;
25331;SDS011;13284;52.748;13.452;2022-09-01T06:30:47;2.80;;;2.20;;
25331;SDS011;13284;52.748;13.452;2022-09-01T06:33:13;2.77;;;2.53;;
25331;SDS011;13284;52.748;13.452;2022-09-01T06:35:39;2.10;;;1.90;;
25331;SDS011;13284;52.748;13.452;2022-09-01T06:38:07;2.50;;;2.13;;
25331;SDS011;13284;52.748;13.452;2022-09-01T06:40:34;2.80;;;2.13;;
25331;SDS011;13284;52.748;13.452;2022-09-01T06:43:05;1.93;;;1.80;;
25331;SDS011;13284;52.748;13.452;2022-09-01T06:45:40;1.87;;;1.77;;
25331;SDS011;13284;52.748;13.452;2022-09-01T06:48:08;2.47;;;2.27;;
25331;SDS011;13284;52.748;13.452;2022-09-01T06:50:37;2.00;;;1.90;;
25331;SDS011;13284;52.748;13.452;2022-09-01T06:53:03;3.53;;;1.40;;
25331;SDS011;13284;52.748;13.452;2022-09-01T06:55:35;5.70;;;2.30;;
25331;SDS011;13284;52.748;13.452;2022-09-01T06:58:06;2.90;;;1.83;;
25331;SDS011;13284;52.748;13.452;2022-09-01T07:00:34;2.43;;;1.87;;
25331;SDS011;13284;52.748;13.452;2022-09-01T07:03:06;2.23;;;2.03;;
25331;SDS011;13284;52.748;13.452;2022-09-01T07:05:39;1.40;;;1.30;;
25331;SDS011;13284;52.748;13.452;2022-09-01T07:08:07;3.47;;;1.80;;
25331;SDS011;13284;52.748;13.452;2022-09-01T07:10:38;1.57;;;1.47;;
25331;SDS011;13284;52.748;13.452;2022-09-01T07:13:09;1.77;;;1.50;;
25331;SDS011;13284;52.748;13.452;2022-09-01T07:15:45;1.87;;;1.30;;
25331;SDS011;13284;52.748;13.452;2022-09-01T07:18:14;1.40;;;1.30;;
25331;SDS011;13284;52.748;13.452;2022-09-01T07:20:41;3.50;;;1.70;;
25331;SDS011;13284;52.748;13.452;2022-09-01T07:23:08;2.30;;;1.53;;
25331;SDS011;13284;52.748;13.452;2022-09-01T07:25:38;1.30;;;1.20;;
25331;SDS011;13284;52.748;13.452;2022-09-01T07:28:05;1.70;;;1.40;;
25331;SDS011;13284;52.748;13.452;2022-09-01T07:30:32;1.60;;;1.50;;
25331;SDS011;13284;52.748;13.452;2022-09-01T07:32:59;1.73;;;1.60;;
25331;SDS011;13284;52.748;13.452;2022-09-01T07:35:24;2.30;;;1.37;;
25331;SDS011;13284;52.748;13.452;2022-09-01T07:37:50;3.17;;;1.63;;
25331;SDS011;13284;52.748;13.452;2022-09-01T07:40:17;1.93;;;1.37;;
25331;SDS011;13284;52.748;13.452;2022-09-01T07:42:44;2.40;;;2.10;;
25331;SDS011;13284;52.748;13.452;2022-09-01T07:45:12;1.50;;;1.40;;
25331;SDS011;13284;52.748;13.452;2022-09-01T07:47:39;1.40;;;1.30;;
25331;SDS011;13284;52.748;13.452;2022-09-01T07:50:06;1.20;;;1.20;;
25331;SDS011;13284;52.748;13.452;2022-09-01T07:52:37;1.43;;;1.33;;
25331;SDS011;13284;52.748;13.452;2022-09-01T07:55:13;1.83;;;1.10;;
25331;SDS011;13284;52.748;13.452;2022-09-01T07:57:41;1.40;;;1.10;;
25331;SDS011;13284;52.748;13.452;2022-09-01T08:00:08;3.73;;;1.57;;
25331;SDS011;13284;52.748;13.452;2022-09-01T08:02:36;1.40;;;1.30;;
25331;SDS011;13284;52.748;13.452;2022-09-01T08:05:04;1.40;;;1.30;;
25331;SDS011;13284;52.748;13.452;2022-09-01T08:07:33;3.03;;;1.00;;
25331;SDS011;13284;52.748;13.452;2022-09-01T08:10:00;1.33;;;1.23;;
25331;SDS011;13284;52.748;13.452;2022-09-01T08:12:26;1.63;;;0.80;;
25331;SDS011;13284;52.748;13.452;2022-09-01T08:14:52;0.70;;;0.70;;
25331;SDS011;13284;52.748;13.452;2022-09-01T08:17:19;1.10;;;1.00;;
25331;SDS011;13284;52.748;13.452;2022-09-01T08:19:45;1.17;;;1.07;;
25331;SDS011;13284;52.748;13.452;2022-09-01T08:22:11;1.07;;;0.70;;
25331;SDS011;13284;52.748;13.452;2022-09-01T08:24:37;0.97;;;0.93;;
25331;SDS011;13284;52.748;13.452;2022-09-01T08:27:02;1.57;;;1.00;;
25331;SDS011;13284;52.748;13.452;2022-09-01T08:29:29;0.77;;;0.77;;
25331;SDS011;13284;52.748;13.452;2022-09-01T08:31:55;2.10;;;1.20;;
25331;SDS011;13284;52.748;13.452;2022-09-01T08:34:23;1.43;;;0.90;;
25331;SDS011;13284;52.748;13.452;2022-09-01T08:36:49;1.70;;;0.90;;
25331;SDS011;13284;52.748;13.452;2022-09-01T08:39:14;2.83;;;0.90;;
25331;SDS011;13284;52.748;13.452;2022-09-01T08:41:45;1.83;;;0.97;;
25331;SDS011;13284;52.748;13.452;2022-09-01T08:44:35;0.93;;;0.93;;
25331;SDS011;13284;52.748;13.452;2022-09-01T08:47:19;0.93;;;0.80;;
25331;SDS011;13284;52.748;13.452;2022-09-01T08:49:45;0.70;;;0.60;;
25331;SDS011;13284;52.748;13.452;2022-09-01T08:54:43;1.10;;;0.83;;
25331;SDS011;13284;52.748;13.452;2022-09-01T08:57:16;0.83;;;0.80;;
25331;SDS011;13284;52.748;13.452;2022-09-01T08:59:50;1.50;;;0.60;;
25331;SDS011;13284;52.748;13.452;2022-09-01T09:02:23;0.63;;;0.63;;
25331;SDS011;13284;52.748;13.452;2022-09-01T09:05:32;1.00;;;0.90;;
25331;SDS011;13284;52.748;13.452;2022-09-01T09:08:11;1.20;;;1.10;;
25331;SDS011;13284;52.748;13.452;2022-09-01T09:10:58;0.80;;;0.80;;
25331;SDS011;13284;52.748;13.452;2022-09-01T09:16:20;2.97;;;1.37;;
25331;SDS011;13284;52.748;13.452;2022-09-01T09:19:07;1.10;;;0.60;;
25331;SDS011;13284;52.748;13.452;2022-09-01T09:21:53;1.47;;;1.10;;
25331;SDS011;13284;52.748;13.452;2022-09-01T09:27:18;1.53;;;0.80;;
25331;SDS011;13284;52.748;13.452;2022-09-01T09:30:07;1.33;;;0.70;;
25331;SDS011;13284;52.748;13.452;2022-09-01T09:35:20;1.20;;;0.77;;
25331;SDS011;13284;52.748;13.452;2022-09-01T09:37:52;0.57;;;0.57;;
25331;SDS011;13284;52.748;13.452;2022-09-01T09:40:19;1.23;;;0.40;;
25331;SDS011;13284;52.748;13.452;2022-09-01T09:45:28;0.67;;;0.43;;
25331;SDS011;13284;52.748;13.452;2022-09-01T09:48:03;1.37;;;0.80;;
25331;SDS011;13284;52.748;13.452;2022-09-01T09:50:36;2.50;;;0.83;;
25331;SDS011;13284;52.748;13.452;2022-09-01T09:53:21;1.40;;;0.67;;
25331;SDS011;13284;52.748;13.452;2022-09-01T09:56:08;2.10;;;0.70;;
25331;SDS011;13284;52.748;13.452;2022-09-01T09:58:40;1.23;;;0.40;;
25331;SDS011;13284;52.748;13.452;2022-09-01T10:01:12;0.63;;;0.60;;
25331;SDS011;13284;52.748;13.452;2022-09-01T10:03:53;0.60;;;0.60;;
25331;SDS011;13284;52.748;13.452;2022-09-01T10:06:36;0.47;;;0.40;;
25331;SDS011;13284;52.748;13.452;2022-09-01T10:09:14;0.40;;;0.40;;
25331;SDS011;13284;52.748;13.452;2022-09-01T10:11:51;0.60;;;0.40;;
25331;SDS011;13284;52.748;13.452;2022-09-01T10:14:27;0.70;;;0.50;;
25331;SDS011;13284;52.748;13.452;2022-09-01T10:17:02;0.43;;;0.40;;
25331;SDS011;13284;52.748;13.452;2022-09-01T10:19:32;1.63;;;0.77;;
25331;SDS011;13284;52.748;13.452;2022-09-01T10:22:02;0.50;;;0.50;;
25331;SDS011;13284;52.748;13.452;2022-09-01T10:24:32;0.50;;;0.40;;
25331;SDS011;13284;52.748;13.452;2022-09-01T10:27:00;1.17;;;0.53;;
25331;SDS011;13284;52.748;13.452;2022-09-01T10:29:33;1.17;;;0.50;;
25331;SDS011;13284;52.748;13.452;2022-09-01T10:32:05;0.93;;;0.60;;
25331;SDS011;13284;52.748;13.452;2022-09-01T10:34:35;0.70;;;0.50;;
25331;SDS011;13284;52.748;13.452;2022-09-01T10:37:02;2.00;;;0.70;;
25331;SDS011;13284;52.748;13.452;2022-09-01T10:39:29;0.40;;;0.40;;
25331;SDS011;13284;52.748;13.452;2022-09-01T10:41:59;0.50;;;0.50;;
25331;SDS011;13284;52.748;13.452;2022-09-01T10:44:33;0.77;;;0.60;;
25331;SDS011;13284;52.748;13.452;2022-09-01T10:47:07;0.67;;;0.50;;
25331;SDS011;13284;52.748;13.452;2022-09-01T10:52:11;1.43;;;0.57;;
25331;SDS011;13284;52.748;13.452;2022-09-01T10:55:15;0.67;;;0.60;;
25331;SDS011;13284;52.748;13.452;2022-09-01T10:57:59;0.77;;;0.40;;
25331;SDS011;13284;52.748;13.452;2022-09-01T11:00:47;0.50;;;0.50;;
25331;SDS011;13284;52.748;13.452;2022-09-01T11:10:56;0.47;;;0.47;;
25331;SDS011;13284;52.748;13.452;2022-09-01T11:13:38;0.50;;;0.43;;
25331;SDS011;13284;52.748;13.452;2022-09-01T11:18:54;0.70;;;0.50;;
25331;SDS011;13284;52.748;13.452;2022-09-01T11:21:39;0.80;;;0.80;;
25331;SDS011;13284;52.748;13.452;2022-09-01T11:30:21;2.20;;;1.70;;
25331;SDS011;13284;52.748;13.452;2022-09-01T11:32:49;4.50;;;4.10;;
25331;SDS011;13284;52.748;13.452;2022-09-01T11:35:22;4.50;;;2.33;;
25331;SDS011;13284;52.748;13.452;2022-09-01T11:37:51;3.87;;;2.87;;
25331;SDS011;13284;52.748;13.452;2022-09-01T11:40:25;8.23;;;5.70;;
25331;SDS011;13284;52.748;13.452;2022-09-01T11:42:54;1.40;;;1.30;;
25331;SDS011;13284;52.748;13.452;2022-09-01T11:45:26;2.43;;;0.90;;
25331;SDS011;13284;52.748;13.452;2022-09-01T11:47:55;1.03;;;0.70;;
25331;SDS011;13284;52.748;13.452;2022-09-01T11:50:25;1.07;;;0.40;;
25331;SDS011;13284;52.748;13.452;2022-09-01T11:53:01;3.73;;;0.60;;
25331;SDS011;13284;52.748;13.452;2022-09-01T11:55:48;1.70;;;0.70;;
25331;SDS011;13284;52.748;13.452;2022-09-01T12:00:51;0.80;;;0.70;;
25331;SDS011;13284;52.748;13.452;2022-09-01T12:05:44;0.87;;;0.60;;
25331;SDS011;13284;52.748;13.452;2022-09-01T12:08:14;0.63;;;0.60;;
25331;SDS011;13284;52.748;13.452;2022-09-01T12:10:42;0.50;;;0.50;;
25331;SDS011;13284;52.748;13.452;2022-09-01T12:13:19;0.50;;;0.50;;
25331;SDS011;13284;52.748;13.452;2022-09-01T12:15:54;0.80;;;0.57;;
25331;SDS011;13284;52.748;13.452;2022-09-01T12:18:25;0.70;;;0.60;;
25331;SDS011;13284;52.748;13.452;2022-09-01T12:20:54;0.93;;;0.90;;
25331;SDS011;13284;52.748;13.452;2022-09-01T12:23:24;0.50;;;0.47;;
25331;SDS011;13284;52.748;13.452;2022-09-01T12:25:53;0.90;;;0.80;;
25331;SDS011;13284;52.748;13.452;2022-09-01T12:28:21;0.43;;;0.43;;
25331;SDS011;13284;52.748;13.452;2022-09-01T12:30:51;0.77;;;0.60;;
25331;SDS011;13284;52.748;13.452;2022-09-01T12:33:19;2.13;;;1.17;;
25331;SDS011;13284;52.748;13.452;2022-09-01T12:35:46;0.60;;;0.60;;
25331;SDS011;13284;52.748;13.452;2022-09-01T12:38:22;1.10;;;0.57;;
25331;SDS011;13284;52.748;13.452;2022-09-01T12:40:53;0.80;;;0.50;;
25331;SDS011;13284;52.748;13.452;2022-09-01T12:43:31;0.97;;;0.70;;
25331;SDS011;13284;52.748;13.452;2022-09-01T12:46:01;6.40;;;0.83;;
25331;SDS011;13284;52.748;13.452;2022-09-01T12:50:56;0.97;;;0.70;;
25331;SDS011;13284;52.748;13.452;2022-09-01T12:53:24;0.60;;;0.53;;
25331;SDS011;13284;52.748;13.452;2022-09-01T12:55:57;0.70;;;0.70;;
25331;SDS011;13284;52.748;13.452;2022-09-01T12:58:40;0.70;;;0.50;;
25331;SDS011;13284;52.748;13.452;2022-09-01T13:01:23;0.90;;;0.63;;
25331;SDS011;13284;52.748;13.452;2022-09-01T13:04:13;1.00;;;0.80;;
25331;SDS011;13284;52.748;13.452;2022-09-01T13:06:51;1.27;;;0.80;;
25331;SDS011;13284;52.748;13.452;2022-09-01T13:09:18;0.80;;;0.50;;
25331;SDS011;13284;52.748;13.452;2022-09-01T13:11:43;0.70;;;0.60;;
25331;SDS011;13284;52.748;13.452;2022-09-01T13:14:11;0.60;;;0.60;;
25331;SDS011;13284;52.748;13.452;2022-09-01T13:16:38;0.93;;;0.60;;
25331;SDS011;13284;52.748;13.452;2022-09-01T13:19:03;3.50;;;0.77;;
25331;SDS011;13284;52.748;13.452;2022-09-01T13:21:30;1.90;;;0.73;;
25331;SDS011;13284;52.748;13.452;2022-09-01T13:23:58;1.73;;;0.87;;
25331;SDS011;13284;52.748;13.452;2022-09-01T13:26:24;0.93;;;0.47;;
25331;SDS011;13284;52.748;13.452;2022-09-01T13:28:50;0.60;;;0.47;;
25331;SDS011;13284;52.748;13.452;2022-09-01T13:31:15;0.87;;;0.60;;
25331;SDS011;13284;52.748;13.452;2022-09-01T13:33:41;1.03;;;0.60;;
25331;SDS011;13284;52.748;13.452;2022-09-01T13:36:07;0.57;;;0.57;;
25331;SDS011;13284;52.748;13.452;2022-09-01T13:38:32;1.27;;;0.60;;
25331;SDS011;13284;52.748;13.452;2022-09-01T13:40:58;1.50;;;0.70;;
25331;SDS011;13284;52.748;13.452;2022-09-01T13:43:26;0.70;;;0.63;;
25331;SDS011;13284;52.748;13.452;2022-09-01T13:45:51;0.57;;;0.57;;
25331;SDS011;13284;52.748;13.452;2022-09-01T13:48:18;0.90;;;0.90;;
25331;SDS011;13284;52.748;13.452;2022-09-01T13:50:44;1.23;;;0.60;;
25331;SDS011;13284;52.748;13.452;2022-09-01T13:53:13;1.27;;;0.70;;
25331;SDS011;13284;52.748;13.452;2022-09-01T13:55:39;0.73;;;0.60;;
25331;SDS011;13284;52.748;13.452;2022-09-01T13:58:05;0.60;;;0.37;;
25331;SDS011;13284;52.748;13.452;2022-09-01T14:00:33;0.80;;;0.80;;
25331;SDS011;13284;52.748;13.452;2022-09-01T14:03:02;2.43;;;0.70;;
25331;SDS011;13284;52.748;13.452;2022-09-01T14:05:32;1.37;;;0.60;;
25331;SDS011;13284;52.748;13.452;2022-09-01T14:07:59;0.97;;;0.80;;
25331;SDS011;13284;52.748;13.452;2022-09-01T14:10:27;0.50;;;0.50;;
25331;SDS011;13284;52.748;13.452;2022-09-01T14:12:55;1.07;;;0.70;;
25331;SDS011;13284;52.748;13.452;2022-09-01T14:15:21;0.47;;;0.47;;
25331;SDS011;13284;52.748;13.452;2022-09-01T14:17:47;0.90;;;0.60;;
25331;SDS011;13284;52.748;13.452;2022-09-01T14:20:17;1.00;;;0.70;;
25331;SDS011;13284;52.748;13.452;2022-09-01T14:22:46;0.70;;;0.67;;
25331;SDS011;13284;52.748;13.452;2022-09-01T14:25:13;0.60;;;0.60;;
25331;SDS011;13284;52.748;13.452;2022-09-01T14:27:39;0.80;;;0.50;;
25331;SDS011;13284;52.748;13.452;2022-09-01T14:30:07;0.70;;;0.70;;
25331;SDS011;13284;52.748;13.452;2022-09-01T14:32:34;0.80;;;0.80;;
25331;SDS011;13284;52.748;13.452;2022-09-01T14:35:00;0.67;;;0.67;;
25331;SDS011;13284;52.748;13.452;2022-09-01T14:37:26;0.63;;;0.60;;
25331;SDS011;13284;52.748;13.452;2022-09-01T14:39:53;1.10;;;0.60;;
25331;SDS011;13284;52.748;13.452;2022-09-01T14:42:20;0.70;;;0.70;;
25331;SDS011;13284;52.748;13.452;2022-09-01T14:44:47;6.10;;;1.90;;
25331;SDS011;13284;52.748;13.452;2022-09-01T14:47:13;1.00;;;0.67;;
25331;SDS011;13284;52.748;13.452;2022-09-01T14:49:41;1.23;;;0.60;;
25331;SDS011;13284;52.748;13.452;2022-09-01T14:52:07;0.73;;;0.60;;
25331;SDS011;13284;52.748;13.452;2022-09-01T14:54:33;0.50;;;0.50;;
25331;SDS011;13284;52.748;13.452;2022-09-01T14:57:00;1.00;;;0.80;;
25331;SDS011;13284;52.748;13.452;2022-09-01T14:59:26;0.60;;;0.60;;
25331;SDS011;13284;52.748;13.452;2022-09-01T15:01:52;2.97;;;0.70;;
25331;SDS011;13284;52.748;13.452;2022-09-01T15:04:17;0.67;;;0.67;;
25331;SDS011;13284;52.748;13.452;2022-09-01T15:06:43;1.50;;;0.80;;
25331;SDS011;13284;52.748;13.452;2022-09-01T15:09:09;1.90;;;0.80;;
25331;SDS011;13284;52.748;13.452;2022-09-01T15:11:34;1.13;;;0.87;;
25331;SDS011;13284;52.748;13.452;2022-09-01T15:14:00;2.10;;;0.60;;
25331;SDS011;13284;52.748;13.452;2022-09-01T15:16:26;0.80;;;0.80;;
25331;SDS011;13284;52.748;13.452;2022-09-01T15:18:52;1.13;;;0.60;;
25331;SDS011;13284;52.748;13.452;2022-09-01T15:21:29;0.63;;;0.60;;
25331;SDS011;13284;52.748;13.452;2022-09-01T15:23:58;1.17;;;0.60;;
25331;SDS011;13284;52.748;13.452;2022-09-01T15:26:24;0.70;;;0.70;;
25331;SDS011;13284;52.748;13.452;2022-09-01T15:28:51;0.87;;;0.87;;
25331;SDS011;13284;52.748;13.452;2022-09-01T15:31:18;0.80;;;0.70;;
25331;SDS011;13284;52.748;13.452;2022-09-01T15:33:45;1.23;;;1.00;;
25331;SDS011;13284;52.748;13.452;2022-09-01T15:36:19;1.20;;;0.80;;